createdAt,value
2019-03-30T00:00:08.505Z,49.27
2019-03-30T00:02:37.317Z,47.07
2019-03-30T00:05:06.141Z,47.07
2019-03-30T00:07:34.966Z,45.87
2019-03-30T00:10:03.820Z,47.30
2019-03-30T00:12:32.701Z,46.27
2019-03-30T00:15:01.539Z,42.53
2019-03-30T00:17:30.364Z,47.40
2019-03-30T00:19:59.193Z,48.40
2019-03-30T00:22:28.030Z,46.07
2019-03-30T00:24:56.871Z,47.43
2019-03-30T00:27:25.702Z,46.00
2019-03-30T00:29:54.541Z,47.13
2019-03-30T00:32:23.369Z,46.77
2019-03-30T00:34:52.201Z,45.83
2019-03-30T00:37:21.606Z,44.77
2019-03-30T00:39:50.433Z,42.10
2019-03-30T00:42:19.254Z,46.37
2019-03-30T00:44:48.085Z,45.47
2019-03-30T00:47:16.925Z,41.23
2019-03-30T00:49:49.696Z,42.17
2019-03-30T00:52:16.303Z,43.83
2019-03-30T00:54:45.134Z,43.87
2019-03-30T00:57:13.999Z,40.43
2019-03-30T00:59:42.822Z,39.57
2019-03-30T01:02:11.689Z,41.90
2019-03-30T01:04:40.516Z,44.60
2019-03-30T01:07:09.376Z,41.30
2019-03-30T01:09:38.230Z,40.10
2019-03-30T01:12:07.349Z,41.97
2019-03-30T01:14:36.175Z,37.80
2019-03-30T01:17:05.819Z,40.20
2019-03-30T01:19:34.650Z,40.60
2019-03-30T01:22:03.467Z,41.07
2019-03-30T01:24:32.306Z,37.80
2019-03-30T01:27:01.238Z,42.57
2019-03-30T01:29:30.154Z,36.07
2019-03-30T01:31:59.014Z,37.43
2019-03-30T01:34:27.826Z,35.80
2019-03-30T01:36:56.662Z,33.80
2019-03-30T01:39:25.568Z,36.00
2019-03-30T01:41:54.382Z,32.77
2019-03-30T01:44:23.298Z,33.57
2019-03-30T01:46:52.158Z,32.13
2019-03-30T01:49:21.029Z,32.10
2019-03-30T01:51:49.894Z,28.03
2019-03-30T01:54:18.750Z,31.17
2019-03-30T01:56:47.562Z,28.20
2019-03-30T01:59:16.390Z,30.17
2019-03-30T02:01:45.236Z,26.67
2019-03-30T02:04:14.058Z,27.87
2019-03-30T02:06:42.918Z,24.93
2019-03-30T02:09:11.762Z,27.67
2019-03-30T02:11:40.679Z,26.80
2019-03-30T02:14:09.503Z,24.40
2019-03-30T02:16:38.380Z,25.53
2019-03-30T02:19:07.182Z,26.60
2019-03-30T02:21:35.998Z,23.27
2019-03-30T02:24:04.820Z,23.97
2019-03-30T02:26:33.674Z,21.67
2019-03-30T02:29:02.482Z,22.73
2019-03-30T02:31:31.361Z,23.20
2019-03-30T02:34:00.187Z,21.00
2019-03-30T02:36:28.993Z,21.20
2019-03-30T02:38:57.836Z,22.47
2019-03-30T02:41:26.653Z,20.60
2019-03-30T02:43:55.479Z,20.43
2019-03-30T02:46:24.318Z,20.87
2019-03-30T02:48:53.125Z,21.73
2019-03-30T02:51:21.990Z,22.33
2019-03-30T02:53:50.846Z,22.77
2019-03-30T02:56:19.690Z,21.50
2019-03-30T02:58:48.520Z,22.47
2019-03-30T03:01:17.352Z,21.73
2019-03-30T03:03:46.242Z,19.47
2019-03-30T03:06:15.063Z,19.73
2019-03-30T03:08:43.898Z,19.77
2019-03-30T03:11:12.737Z,20.93
2019-03-30T03:13:41.668Z,20.53
2019-03-30T03:16:10.500Z,21.87
2019-03-30T03:18:39.364Z,20.97
2019-03-30T03:21:08.842Z,19.53
2019-03-30T03:23:37.930Z,18.93
2019-03-30T03:26:06.785Z,20.60
2019-03-30T03:28:35.612Z,18.67
2019-03-30T03:31:04.469Z,20.17
2019-03-30T03:33:33.395Z,18.80
2019-03-30T03:36:02.263Z,19.67
2019-03-30T03:38:31.086Z,17.93
2019-03-30T03:40:59.987Z,20.03
2019-03-30T03:43:28.806Z,18.90
2019-03-30T03:45:57.757Z,18.37
2019-03-30T03:48:26.592Z,18.37
2019-03-30T03:50:57.214Z,19.90
2019-03-30T03:53:26.022Z,19.40
2019-03-30T03:55:54.883Z,20.27
2019-03-30T03:58:24.597Z,19.17
2019-03-30T04:00:53.416Z,19.10
2019-03-30T04:03:22.252Z,18.87
2019-03-30T04:05:51.115Z,19.80
2019-03-30T04:08:19.942Z,18.13
2019-03-30T04:10:49.090Z,18.67
2019-03-30T04:13:17.954Z,20.43
2019-03-30T04:15:46.816Z,19.20
2019-03-30T04:18:15.810Z,17.63
2019-03-30T04:20:44.651Z,18.23
2019-03-30T04:23:13.479Z,17.93
2019-03-30T04:25:42.414Z,19.33
2019-03-30T04:28:11.240Z,19.83
2019-03-30T04:30:40.104Z,18.03
2019-03-30T04:33:08.930Z,18.30
2019-03-30T04:35:37.810Z,19.90
2019-03-30T04:38:06.658Z,18.47
2019-03-30T04:40:35.479Z,19.20
2019-03-30T04:43:04.409Z,18.93
2019-03-30T04:45:33.310Z,17.27
2019-03-30T04:48:02.133Z,18.67
2019-03-30T04:50:30.958Z,19.67
2019-03-30T04:52:59.753Z,18.30
2019-03-30T04:55:28.610Z,20.00
2019-03-30T04:57:57.971Z,18.07
2019-03-30T05:00:27.027Z,18.00
2019-03-30T05:02:55.884Z,19.10
2019-03-30T05:05:24.726Z,18.30
2019-03-30T05:07:53.593Z,17.80
2019-03-30T05:10:22.429Z,18.20
2019-03-30T05:12:51.258Z,16.30
2019-03-30T05:15:20.061Z,16.40
2019-03-30T05:17:48.921Z,17.77
2019-03-30T05:20:17.750Z,17.23
2019-03-30T05:22:46.564Z,16.67
2019-03-30T05:25:15.424Z,17.63
2019-03-30T05:27:44.242Z,17.90
2019-03-30T05:30:13.126Z,17.50
2019-03-30T05:32:42.050Z,18.10
2019-03-30T05:35:11.108Z,18.80
2019-03-30T05:37:39.916Z,18.00
2019-03-30T05:40:08.746Z,17.20
2019-03-30T05:42:37.648Z,18.80
2019-03-30T05:45:06.513Z,18.40
2019-03-30T05:47:35.338Z,17.63
2019-03-30T05:50:04.358Z,17.23
2019-03-30T05:52:35.563Z,17.43
2019-03-30T05:55:03.798Z,17.17
2019-03-30T05:57:32.647Z,17.10
2019-03-30T06:00:01.494Z,17.30
2019-03-30T06:02:30.375Z,17.67
2019-03-30T06:05:00.372Z,18.27
2019-03-30T06:07:29.821Z,19.10
2019-03-30T06:09:58.638Z,17.17
2019-03-30T06:12:27.466Z,16.93
2019-03-30T06:14:56.302Z,16.73
2019-03-30T06:17:26.422Z,18.60
2019-03-30T06:19:55.374Z,17.97
2019-03-30T06:22:24.241Z,17.83
2019-03-30T06:24:53.046Z,17.83
2019-03-30T06:27:21.897Z,19.17
2019-03-30T06:30:22.034Z,19.83
2019-03-30T06:32:50.914Z,18.70
2019-03-30T06:35:19.790Z,18.50
2019-03-30T06:37:48.622Z,19.37
2019-03-30T06:40:17.454Z,20.10
2019-03-30T06:42:46.262Z,19.17
2019-03-30T06:45:16.058Z,19.23
2019-03-30T06:47:44.895Z,20.47
2019-03-30T06:50:13.697Z,21.10
2019-03-30T06:52:56.381Z,19.03
2019-03-30T06:55:13.128Z,19.43
2019-03-30T06:57:41.955Z,20.40
2019-03-30T07:00:10.774Z,20.47
2019-03-30T07:02:39.606Z,21.33
2019-03-30T07:05:08.719Z,20.17
2019-03-30T07:07:37.738Z,20.30
2019-03-30T07:10:07.065Z,18.63
2019-03-30T07:12:39.317Z,20.63
2019-03-30T07:15:08.176Z,19.30
2019-03-30T07:17:38.910Z,20.73
2019-03-30T07:20:09.823Z,21.57
2019-03-30T07:22:38.666Z,20.77
2019-03-30T07:25:07.501Z,19.27
2019-03-30T07:27:36.345Z,19.27
2019-03-30T07:30:05.501Z,19.40
2019-03-30T07:32:34.458Z,19.90
2019-03-30T07:35:03.351Z,23.73
2019-03-30T07:37:32.173Z,20.40
2019-03-30T07:40:01.032Z,21.10
2019-03-30T07:42:29.833Z,21.43
2019-03-30T07:44:58.646Z,18.13
2019-03-30T07:47:27.477Z,17.27
2019-03-30T07:49:56.397Z,16.83
2019-03-30T07:52:25.206Z,17.67
2019-03-30T07:54:54.030Z,20.80
2019-03-30T07:57:22.843Z,20.73
2019-03-30T07:59:51.685Z,21.57
2019-03-30T08:02:20.689Z,21.37
2019-03-30T08:04:50.416Z,20.47
2019-03-30T08:07:19.227Z,23.23
2019-03-30T08:09:48.075Z,22.13
2019-03-30T08:12:16.933Z,23.97
2019-03-30T08:14:45.762Z,23.77
2019-03-30T08:17:14.575Z,22.20
2019-03-30T08:19:43.397Z,23.10
2019-03-30T08:22:12.213Z,22.27
2019-03-30T08:24:41.034Z,21.77
2019-03-30T08:27:09.849Z,21.53
2019-03-30T08:29:38.761Z,19.77
2019-03-30T08:32:07.574Z,21.63
2019-03-30T08:34:36.421Z,21.90
2019-03-30T08:37:05.259Z,21.73
2019-03-30T08:39:34.079Z,21.60
2019-03-30T08:42:02.890Z,22.63
2019-03-30T08:44:31.705Z,21.83
2019-03-30T08:47:00.516Z,23.03
2019-03-30T08:49:29.327Z,20.47
2019-03-30T08:51:58.150Z,23.13
2019-03-30T08:54:27.031Z,21.13
2019-03-30T08:56:55.842Z,19.53
2019-03-30T08:59:24.657Z,20.43
2019-03-30T09:01:53.517Z,21.17
2019-03-30T09:04:23.702Z,21.43
2019-03-30T09:06:52.502Z,19.97
2019-03-30T09:09:21.338Z,21.63
2019-03-30T09:11:50.237Z,21.03
2019-03-30T09:14:19.094Z,22.30
2019-03-30T09:16:48.270Z,21.63
2019-03-30T09:19:17.118Z,20.40
2019-03-30T09:21:45.909Z,20.83
2019-03-30T09:24:14.729Z,20.17
2019-03-30T09:26:43.598Z,19.90
2019-03-30T09:29:12.470Z,20.17
2019-03-30T09:31:41.329Z,20.87
2019-03-30T09:34:10.205Z,19.57
2019-03-30T09:36:39.093Z,20.67
2019-03-30T09:39:08.041Z,19.77
2019-03-30T09:41:36.901Z,20.23
2019-03-30T09:44:05.735Z,20.40
2019-03-30T09:46:36.297Z,20.53
2019-03-30T09:49:05.140Z,20.83
2019-03-30T09:51:33.954Z,21.33
2019-03-30T09:54:02.790Z,20.47
2019-03-30T09:56:45.601Z,20.50
2019-03-30T09:59:16.015Z,19.80
2019-03-30T10:01:44.853Z,21.63
2019-03-30T10:04:13.712Z,21.53
2019-03-30T10:06:42.649Z,19.07
2019-03-30T10:09:11.487Z,21.40
2019-03-30T10:11:40.323Z,20.40
2019-03-30T10:14:09.335Z,20.20
2019-03-30T10:16:38.162Z,20.63
2019-03-30T10:19:07.005Z,20.60
2019-03-30T10:21:35.838Z,20.00
2019-03-30T10:24:04.677Z,19.97
2019-03-30T10:26:33.551Z,20.50
2019-03-30T10:29:02.394Z,19.80
2019-03-30T10:31:31.257Z,21.07
2019-03-30T10:34:00.318Z,20.87
2019-03-30T10:36:29.210Z,23.17
2019-03-30T10:38:58.055Z,21.90
2019-03-30T10:41:26.877Z,21.10
2019-03-30T10:43:55.757Z,22.13
2019-03-30T10:46:24.596Z,22.03
2019-03-30T10:48:53.486Z,19.70
2019-03-30T10:51:22.657Z,21.23
2019-03-30T10:53:51.659Z,21.67
2019-03-30T10:56:20.526Z,19.60
2019-03-30T10:58:50.660Z,20.13
2019-03-30T11:01:25.530Z,20.33
2019-03-30T11:03:54.390Z,20.77
2019-03-30T11:06:23.234Z,21.33
2019-03-30T11:08:52.078Z,21.53
2019-03-30T11:11:20.928Z,21.77
2019-03-30T11:13:49.861Z,20.20
2019-03-30T11:16:18.774Z,21.57
2019-03-30T11:18:47.643Z,22.20
2019-03-30T11:21:16.473Z,21.13
2019-03-30T11:23:45.254Z,20.57
2019-03-30T11:26:14.077Z,20.10
2019-03-30T11:28:42.951Z,18.77
2019-03-30T11:31:12.531Z,20.10
2019-03-30T11:33:41.458Z,19.40
2019-03-30T11:36:10.291Z,19.00
2019-03-30T11:38:39.216Z,18.87
2019-03-30T11:41:08.079Z,19.00
2019-03-30T11:43:36.942Z,19.87
2019-03-30T11:46:05.782Z,19.40
2019-03-30T11:48:37.305Z,19.67
2019-03-30T11:51:05.241Z,19.17
2019-03-30T11:53:34.113Z,20.30
2019-03-30T11:56:02.984Z,17.77
2019-03-30T11:58:31.803Z,19.23
2019-03-30T12:01:00.659Z,18.17
2019-03-30T12:03:29.522Z,18.40
2019-03-30T12:05:58.397Z,18.50
2019-03-30T12:08:27.253Z,19.13
2019-03-30T12:10:56.075Z,18.37
2019-03-30T12:13:24.889Z,17.87
2019-03-30T12:15:53.759Z,18.67
2019-03-30T12:18:22.664Z,18.77
2019-03-30T12:20:51.498Z,17.70
2019-03-30T12:23:20.325Z,19.60
2019-03-30T12:25:49.165Z,19.07
2019-03-30T12:28:18.003Z,20.23
2019-03-30T12:30:46.832Z,20.37
2019-03-30T12:33:15.675Z,20.43
2019-03-30T12:35:44.530Z,21.43
2019-03-30T12:38:13.430Z,19.73
2019-03-30T12:40:42.269Z,19.97
2019-03-30T12:43:11.122Z,20.47
2019-03-30T12:45:39.970Z,17.67
2019-03-30T12:48:08.832Z,19.00
2019-03-30T12:50:37.666Z,19.37
2019-03-30T12:53:06.510Z,18.33
2019-03-30T12:55:48.399Z,17.67
2019-03-30T12:58:05.908Z,19.33
2019-03-30T13:00:34.789Z,17.97
2019-03-30T13:03:03.703Z,20.13
2019-03-30T13:05:32.486Z,19.73
2019-03-30T13:08:01.334Z,20.37
2019-03-30T13:10:31.746Z,20.13
2019-03-30T13:13:00.581Z,19.43
2019-03-30T13:15:29.422Z,18.80
2019-03-30T13:17:58.281Z,21.47
2019-03-30T13:20:27.147Z,19.60
2019-03-30T13:22:55.981Z,18.10
2019-03-30T13:25:24.822Z,20.27
2019-03-30T13:27:53.638Z,19.60
2019-03-30T13:30:22.519Z,18.53
2019-03-30T13:32:53.450Z,18.53
2019-03-30T13:35:21.981Z,20.33
2019-03-30T13:37:50.827Z,25.17
2019-03-30T13:40:19.682Z,22.60
2019-03-30T13:42:48.522Z,23.10
2019-03-30T13:45:17.363Z,22.60
2019-03-30T13:47:46.210Z,22.33
2019-03-30T13:50:16.581Z,23.07
2019-03-30T13:52:45.444Z,19.53
2019-03-30T13:55:14.478Z,22.40
2019-03-30T13:57:43.305Z,22.03
2019-03-30T14:00:12.173Z,23.43
2019-03-30T14:02:43.834Z,22.30
2019-03-30T14:05:11.570Z,22.43
2019-03-30T14:07:40.434Z,22.90
2019-03-30T14:10:09.245Z,22.40
2019-03-30T14:12:38.161Z,23.23
2019-03-30T14:15:09.394Z,20.60
2019-03-30T14:17:37.605Z,20.63
2019-03-30T14:20:07.138Z,20.37
2019-03-30T14:22:36.011Z,21.27
2019-03-30T14:25:05.367Z,21.63
2019-03-30T14:27:35.758Z,22.07
2019-03-30T14:30:05.002Z,19.17
2019-03-30T14:32:33.841Z,20.60
2019-03-30T14:35:02.681Z,21.47
2019-03-30T14:37:31.545Z,19.77
2019-03-30T14:40:00.457Z,20.47
2019-03-30T14:42:30.056Z,20.40
2019-03-30T14:44:58.881Z,21.10
2019-03-30T14:47:27.769Z,20.20
2019-03-30T14:49:56.526Z,21.47
2019-03-30T14:52:25.405Z,22.93
2019-03-30T14:54:55.787Z,22.60
2019-03-30T14:57:24.633Z,22.87
2019-03-30T14:59:53.475Z,25.43
2019-03-30T15:02:22.311Z,29.80
2019-03-30T15:04:51.213Z,28.03
2019-03-30T15:07:20.068Z,28.13
2019-03-30T15:09:48.935Z,30.20
2019-03-30T15:12:17.762Z,26.97
2019-03-30T15:14:46.591Z,27.30
2019-03-30T15:17:15.455Z,28.17
2019-03-30T15:19:44.317Z,29.47
2019-03-30T15:22:13.294Z,28.67
2019-03-30T15:24:42.105Z,30.43
2019-03-30T15:27:10.935Z,28.67
2019-03-30T15:29:39.750Z,29.97
2019-03-30T15:32:08.601Z,30.70
2019-03-30T15:34:37.461Z,28.30
2019-03-30T15:37:06.951Z,28.43
2019-03-30T15:39:35.842Z,29.70
2019-03-30T15:42:04.807Z,29.53
2019-03-30T15:44:33.633Z,30.13
2019-03-30T15:47:02.469Z,28.93
2019-03-30T15:49:31.321Z,27.00
2019-03-30T15:52:13.269Z,26.70
2019-03-30T15:54:30.784Z,31.03
2019-03-30T15:57:13.284Z,27.03
2019-03-30T15:59:30.264Z,25.30
2019-03-30T16:01:59.100Z,24.77
2019-03-30T16:04:27.917Z,25.77
2019-03-30T16:06:56.741Z,22.53
2019-03-30T16:09:25.597Z,26.80
2019-03-30T16:11:54.458Z,28.17
2019-03-30T16:14:23.352Z,30.03
2019-03-30T16:16:52.199Z,28.23
2019-03-30T16:19:21.019Z,30.10
2019-03-30T16:21:51.679Z,30.37
2019-03-30T16:24:20.545Z,26.60
2019-03-30T16:26:49.386Z,26.97
2019-03-30T16:29:18.232Z,28.33
2019-03-30T16:31:47.098Z,28.87
2019-03-30T16:34:17.177Z,30.53
2019-03-30T16:36:46.006Z,28.37
2019-03-30T16:39:14.865Z,30.57
2019-03-30T16:41:43.760Z,33.03
2019-03-30T16:44:12.626Z,33.03
2019-03-30T16:46:41.649Z,31.30
2019-03-30T16:49:10.565Z,31.70
2019-03-30T16:51:39.432Z,25.57
2019-03-30T16:54:08.295Z,31.03
2019-03-30T16:56:37.110Z,30.63
2019-03-30T16:59:06.009Z,32.40
2019-03-30T17:01:34.855Z,30.30
2019-03-30T17:04:03.709Z,30.27
2019-03-30T17:06:32.572Z,30.97
2019-03-30T17:09:01.446Z,30.67
2019-03-30T17:11:30.273Z,30.97
2019-03-30T17:13:59.153Z,31.77
2019-03-30T17:16:28.037Z,30.83
2019-03-30T17:18:56.861Z,30.13
2019-03-30T17:21:25.704Z,31.57
2019-03-30T17:23:54.539Z,27.80
2019-03-30T17:26:23.414Z,30.70
2019-03-30T17:28:52.265Z,32.23
2019-03-30T17:31:21.123Z,30.10
2019-03-30T17:33:49.942Z,29.93
2019-03-30T17:36:18.775Z,30.73
2019-03-30T17:38:47.634Z,29.87
2019-03-30T17:41:16.478Z,30.60
2019-03-30T17:43:45.311Z,33.27
2019-03-30T17:46:14.137Z,34.80
2019-03-30T17:48:42.961Z,33.20
2019-03-30T17:51:11.955Z,34.73
2019-03-30T17:53:40.810Z,38.47
2019-03-30T17:56:09.976Z,35.53
2019-03-30T17:58:38.846Z,34.03
2019-03-30T18:01:07.686Z,29.57
2019-03-30T18:03:36.547Z,35.27
2019-03-30T18:06:05.362Z,33.27
2019-03-30T18:08:34.219Z,33.67
2019-03-30T18:11:04.282Z,34.80
2019-03-30T18:13:36.634Z,37.17
2019-03-30T18:16:03.905Z,36.83
2019-03-30T18:18:32.739Z,36.40
2019-03-30T18:21:01.577Z,34.50
2019-03-30T18:23:30.407Z,37.27
2019-03-30T18:25:59.230Z,33.87
2019-03-30T18:28:28.081Z,37.97
2019-03-30T18:30:56.903Z,38.97
2019-03-30T18:33:25.722Z,38.57
2019-03-30T18:35:57.949Z,37.57
2019-03-30T18:38:26.975Z,38.07
2019-03-30T18:40:55.965Z,39.40
2019-03-30T18:43:27.199Z,40.43
2019-03-30T18:45:56.131Z,38.27
2019-03-30T18:48:25.126Z,39.50
2019-03-30T18:50:53.982Z,30.70
2019-03-30T18:53:22.827Z,27.07
2019-03-30T18:55:53.028Z,30.93
2019-03-30T18:58:21.997Z,38.87
2019-03-30T19:00:50.949Z,37.10
2019-03-30T19:03:20.458Z,38.63
2019-03-30T19:05:49.585Z,38.77
2019-03-30T19:08:18.668Z,39.27
2019-03-30T19:10:47.735Z,39.00
2019-03-30T19:13:16.735Z,39.97
2019-03-30T19:15:45.559Z,39.23
2019-03-30T19:18:14.567Z,40.50
2019-03-30T19:20:43.522Z,42.00
2019-03-30T19:23:12.483Z,41.40
2019-03-30T19:25:42.031Z,39.63
2019-03-30T19:28:10.870Z,39.77
2019-03-30T19:30:42.224Z,38.93
2019-03-30T19:33:10.498Z,40.97
2019-03-30T19:35:42.264Z,40.63
2019-03-30T19:38:11.241Z,41.37
2019-03-30T19:40:40.102Z,38.93
2019-03-30T19:43:08.994Z,40.70
2019-03-30T19:45:38.045Z,42.87
2019-03-30T19:48:07.086Z,44.73
2019-03-30T19:50:36.630Z,42.63
2019-03-30T19:53:05.577Z,42.50
2019-03-30T19:55:34.798Z,39.80
2019-03-30T19:58:03.666Z,42.17
2019-03-30T20:00:32.754Z,41.97
2019-03-30T20:05:57.591Z,41.53
2019-03-30T20:08:26.449Z,40.43
2019-03-30T20:10:55.271Z,42.47
2019-03-30T20:13:24.132Z,39.33
2019-03-30T20:15:52.957Z,39.77
2019-03-30T20:18:21.806Z,41.60
2019-03-30T20:20:50.792Z,41.97
2019-03-30T20:23:19.602Z,39.73
2019-03-30T20:25:48.551Z,38.33
2019-03-30T20:28:17.381Z,41.77
2019-03-30T20:30:46.233Z,41.00
2019-03-30T20:33:15.150Z,42.90
2019-03-30T20:35:43.998Z,41.63
2019-03-30T20:38:12.861Z,41.53
2019-03-30T20:40:41.718Z,39.00
2019-03-30T20:43:10.558Z,43.53
2019-03-30T20:45:39.397Z,42.13
2019-03-30T20:48:08.269Z,42.47
2019-03-30T20:50:37.186Z,44.20
2019-03-30T20:53:06.033Z,44.43
2019-03-30T20:55:35.579Z,37.87
2019-03-30T20:58:04.377Z,40.50
2019-03-30T21:00:33.245Z,41.53
2019-03-30T21:03:02.143Z,38.67
2019-03-30T21:05:30.949Z,40.67
2019-03-30T21:07:59.864Z,40.47
2019-03-30T21:10:28.718Z,40.40
2019-03-30T21:12:57.598Z,42.23
2019-03-30T21:15:26.438Z,40.60
2019-03-30T21:17:55.296Z,41.43
2019-03-30T21:20:24.167Z,40.83
2019-03-30T21:22:53.018Z,40.30
2019-03-30T21:25:21.859Z,40.43
2019-03-30T21:27:50.742Z,40.53
2019-03-30T21:30:19.587Z,40.03
2019-03-30T21:32:48.420Z,40.43
2019-03-30T21:35:17.254Z,37.80
2019-03-30T21:37:46.169Z,40.00
2019-03-30T21:40:15.005Z,39.20
2019-03-30T21:42:43.894Z,39.80
2019-03-30T21:45:12.733Z,38.97
2019-03-30T21:47:41.600Z,39.20
2019-03-30T21:50:10.441Z,39.80
2019-03-30T21:52:39.302Z,38.10
2019-03-30T21:55:08.197Z,39.90
2019-03-30T21:57:37.034Z,38.90
2019-03-30T22:00:10.275Z,38.30
2019-03-30T22:02:36.717Z,40.33
2019-03-30T22:05:05.874Z,41.70
2019-03-30T22:07:34.808Z,42.37
2019-03-30T22:10:04.090Z,38.93
2019-03-30T22:12:32.959Z,42.97
2019-03-30T22:15:01.806Z,41.37
2019-03-30T22:17:30.669Z,39.60
2019-03-30T22:19:59.503Z,38.13
2019-03-30T22:22:28.329Z,41.70
2019-03-30T22:24:57.214Z,40.07
2019-03-30T22:27:26.077Z,40.87
2019-03-30T22:29:54.952Z,42.70
2019-03-30T22:32:23.802Z,41.80
2019-03-30T22:34:52.705Z,40.13
2019-03-30T22:37:21.539Z,41.17
2019-03-30T22:39:50.384Z,45.40
2019-03-30T22:42:19.695Z,44.50
2019-03-30T22:44:48.554Z,42.67
2019-03-30T22:47:17.402Z,42.10
2019-03-30T22:49:46.340Z,42.17
2019-03-30T22:52:15.177Z,43.47
2019-03-30T22:54:44.025Z,42.87
2019-03-30T22:57:12.869Z,43.70
2019-03-30T22:59:41.671Z,43.77
2019-03-30T23:02:10.501Z,44.77
2019-03-30T23:04:39.330Z,40.93
2019-03-30T23:07:08.198Z,40.80
2019-03-30T23:09:37.086Z,41.83
2019-03-30T23:12:05.906Z,45.17
2019-03-30T23:14:34.778Z,42.10
2019-03-30T23:17:03.586Z,43.47
2019-03-30T23:19:32.413Z,45.30
2019-03-30T23:22:01.263Z,45.37
2019-03-30T23:24:30.096Z,47.97
2019-03-30T23:26:58.951Z,44.90
2019-03-30T23:29:27.764Z,48.73
2019-03-30T23:31:56.577Z,46.30
2019-03-30T23:34:25.440Z,49.60
2019-03-30T23:36:54.329Z,50.47
2019-03-30T23:39:23.179Z,45.67
2019-03-30T23:41:52.056Z,49.23
2019-03-30T23:44:20.897Z,52.80
2019-03-30T23:46:49.718Z,47.43
2019-03-30T23:49:18.646Z,50.03
2019-03-30T23:51:47.553Z,49.70
2019-03-30T23:54:16.405Z,56.60
2019-03-30T23:56:45.256Z,52.20
2019-03-30T23:59:14.082Z,53.63
